الصفحة الرئيسية
METAR-TAF:

METAR-TAF

مطار :

مطار بشار - بودغن بن علي لطفي

بشار, الجزائر

دائرة عرض: 31-37N, خط طول: 002-14W, ارتفاع: 773 متر

مراقبة الطقس الحالي

تاريخ ووقت الإصدار 30 دقيقة قبل الساعة 09:00UTC
ريح 13 عقدة من الشرق/الجنوب الشرقي
درجة الحرارة 14°درجة مئوية
الرطوبة 41%
ضغط 1018 hPa
الرؤية 10 كم أو أكثر
غيوم قليلة على ارتفاع 3300 قدم
غيوم متفرقة على ارتفاع 10000 قدم

METAR: DAOR 040900Z 11013KT 9999 FEW033 SCT100 14/01 Q1018

زمن: 10:30 (09:30 UTC)

توقعات

تاريخ ووقت الإصدار 1ساعة و 30 دقيقة قبل الساعة 08:00UTC
التوقعات صالحة من04 الساعة 09 UTC إلى 04 الساعة 18 UTC
ريح 12 عقدة من الشرق/الجنوب الشرقي
الرؤية 10 كم أو أكثر
غيوم قليلة على ارتفاع 3000 قدم
غيوم متفرقة على ارتفاع 10000 قدم
أصبح
من 04 الساعة 11 UTC إلى 04 الساعة 13 UTC
ريح 12 عقدة من الجنوب

TAF: DAOR 040800Z 0409/0418 12012KT 9999 FEW030 SCT100 BECMG 0411/0413 18012KT

أرصاد الطقس والتوقعات من أكثر من 4000 مطار (تقارير الطقس للمطار METAR والتنبؤ بالطقس بالمطارTAF).

المحطات المتاحة هي النقط الصفراء والحمراء على الخريطة.

حرك المؤشر فوق النقطة لمعرفة اسم المحطة.

ثم انقر لمعرفة أرصاد وتوقعات الطقس.

لتغيير الخارطة: اضغط على الأزرار الخضراء مع رمز الصليب الأسود للتكبير. على الزر الأخضر مع شرطة للتصغير، أو على الأسهم الخضراء للخرائط المجاورة.


METAR-TAF: